sensor_id;sensor_type;location;lat;lon;timestamp;temperature;humidity
24426;DHT22;12611;44.446;26.000;2022-09-27T00:01:51;21.20;76.60
24426;DHT22;12611;44.446;26.000;2022-09-27T00:04:20;21.20;76.60
24426;DHT22;12611;44.446;26.000;2022-09-27T00:06:48;21.20;76.90
24426;DHT22;12611;44.446;26.000;2022-09-27T00:09:17;21.20;76.80
24426;DHT22;12611;44.446;26.000;2022-09-27T00:11:45;21.20;77.70
24426;DHT22;12611;44.446;26.000;2022-09-27T00:14:15;21.20;77.00
24426;DHT22;12611;44.446;26.000;2022-09-27T00:16:46;21.20;77.00
24426;DHT22;12611;44.446;26.000;2022-09-27T00:19:16;21.20;77.20
24426;DHT22;12611;44.446;26.000;2022-09-27T00:21:46;21.20;77.30
24426;DHT22;12611;44.446;26.000;2022-09-27T00:24:16;21.20;77.80
24426;DHT22;12611;44.446;26.000;2022-09-27T00:26:45;21.20;79.00
24426;DHT22;12611;44.446;26.000;2022-09-27T00:29:14;21.10;79.80
24426;DHT22;12611;44.446;26.000;2022-09-27T00:31:45;21.10;79.70
24426;DHT22;12611;44.446;26.000;2022-09-27T00:34:18;21.00;79.50
24426;DHT22;12611;44.446;26.000;2022-09-27T00:36:47;21.00;79.50
24426;DHT22;12611;44.446;26.000;2022-09-27T00:39:16;21.00;79.70
24426;DHT22;12611;44.446;26.000;2022-09-27T00:41:44;21.00;80.00
24426;DHT22;12611;44.446;26.000;2022-09-27T00:44:57;21.00;80.70
24426;DHT22;12611;44.446;26.000;2022-09-27T00:47:31;20.90;81.00
24426;DHT22;12611;44.446;26.000;2022-09-27T00:50:07;20.80;81.40
24426;DHT22;12611;44.446;26.000;2022-09-27T00:52:42;20.80;81.40
24426;DHT22;12611;44.446;26.000;2022-09-27T00:55:14;20.80;81.80
24426;DHT22;12611;44.446;26.000;2022-09-27T00:57:45;20.80;81.70
24426;DHT22;12611;44.446;26.000;2022-09-27T01:00:15;20.80;82.30
24426;DHT22;12611;44.446;26.000;2022-09-27T01:02:46;20.70;82.50
24426;DHT22;12611;44.446;26.000;2022-09-27T01:05:19;20.70;83.30
24426;DHT22;12611;44.446;26.000;2022-09-27T01:07:49;20.60;83.00
24426;DHT22;12611;44.446;26.000;2022-09-27T01:10:18;20.60;83.00
24426;DHT22;12611;44.446;26.000;2022-09-27T01:12:57;20.60;83.50
24426;DHT22;12611;44.446;26.000;2022-09-27T01:15:33;20.60;83.30
24426;DHT22;12611;44.446;26.000;2022-09-27T01:18:16;20.60;83.10
24426;DHT22;12611;44.446;26.000;2022-09-27T01:21:11;20.60;83.10
24426;DHT22;12611;44.446;26.000;2022-09-27T01:24:18;20.60;83.10
24426;DHT22;12611;44.446;26.000;2022-09-27T01:27:13;20.60;83.10
24426;DHT22;12611;44.446;26.000;2022-09-27T01:29:58;20.60;83.10
24426;DHT22;12611;44.446;26.000;2022-09-27T01:32:34;20.60;83.00
24426;DHT22;12611;44.446;26.000;2022-09-27T01:35:07;20.60;83.90
24426;DHT22;12611;44.446;26.000;2022-09-27T01:37:45;20.60;83.50
24426;DHT22;12611;44.446;26.000;2022-09-27T01:40:22;20.50;83.60
24426;DHT22;12611;44.446;26.000;2022-09-27T01:42:58;20.50;83.60
24426;DHT22;12611;44.446;26.000;2022-09-27T01:45:30;20.50;84.20
24426;DHT22;12611;44.446;26.000;2022-09-27T01:48:07;20.50;84.00
24426;DHT22;12611;44.446;26.000;2022-09-27T01:50:41;20.50;84.70
24426;DHT22;12611;44.446;26.000;2022-09-27T01:53:16;20.50;84.60
24426;DHT22;12611;44.446;26.000;2022-09-27T01:55:47;20.40;84.50
24426;DHT22;12611;44.446;26.000;2022-09-27T01:58:21;20.40;84.70
24426;DHT22;12611;44.446;26.000;2022-09-27T02:00:51;20.40;85.60
24426;DHT22;12611;44.446;26.000;2022-09-27T02:03:24;20.40;85.60
24426;DHT22;12611;44.446;26.000;2022-09-27T02:05:56;20.30;85.60
24426;DHT22;12611;44.446;26.000;2022-09-27T02:08:32;20.30;85.60
24426;DHT22;12611;44.446;26.000;2022-09-27T02:11:05;20.30;85.80
24426;DHT22;12611;44.446;26.000;2022-09-27T02:13:41;20.30;85.90
24426;DHT22;12611;44.446;26.000;2022-09-27T02:16:18;20.30;85.90
24426;DHT22;12611;44.446;26.000;2022-09-27T02:18:55;20.40;86.00
24426;DHT22;12611;44.446;26.000;2022-09-27T02:21:31;20.30;86.30
24426;DHT22;12611;44.446;26.000;2022-09-27T02:24:05;20.30;87.10
24426;DHT22;12611;44.446;26.000;2022-09-27T02:26:38;20.30;87.40
24426;DHT22;12611;44.446;26.000;2022-09-27T02:29:10;20.20;87.20
24426;DHT22;12611;44.446;26.000;2022-09-27T02:31:40;20.20;87.10
24426;DHT22;12611;44.446;26.000;2022-09-27T02:34:14;20.30;87.10
24426;DHT22;12611;44.446;26.000;2022-09-27T02:36:43;20.20;87.10
24426;DHT22;12611;44.446;26.000;2022-09-27T02:39:12;20.20;87.10
24426;DHT22;12611;44.446;26.000;2022-09-27T02:41:41;20.20;87.80
24426;DHT22;12611;44.446;26.000;2022-09-27T02:44:10;20.20;87.80
24426;DHT22;12611;44.446;26.000;2022-09-27T02:47:03;20.20;87.80
24426;DHT22;12611;44.446;26.000;2022-09-27T02:49:47;20.20;88.20
24426;DHT22;12611;44.446;26.000;2022-09-27T02:52:23;20.20;88.70
24426;DHT22;12611;44.446;26.000;2022-09-27T02:55:04;20.20;88.40
24426;DHT22;12611;44.446;26.000;2022-09-27T02:57:54;20.20;88.60
24426;DHT22;12611;44.446;26.000;2022-09-27T03:00:30;20.20;89.20
24426;DHT22;12611;44.446;26.000;2022-09-27T03:03:06;20.10;89.70
24426;DHT22;12611;44.446;26.000;2022-09-27T03:05:40;20.10;90.20
24426;DHT22;12611;44.446;26.000;2022-09-27T03:08:11;20.10;90.50
24426;DHT22;12611;44.446;26.000;2022-09-27T03:10:39;20.10;90.80
24426;DHT22;12611;44.446;26.000;2022-09-27T03:13:08;20.00;90.90
24426;DHT22;12611;44.446;26.000;2022-09-27T03:15:36;20.00;91.10
24426;DHT22;12611;44.446;26.000;2022-09-27T03:18:05;20.00;91.10
24426;DHT22;12611;44.446;26.000;2022-09-27T03:20:33;20.00;91.20
24426;DHT22;12611;44.446;26.000;2022-09-27T03:23:03;19.90;91.30
24426;DHT22;12611;44.446;26.000;2022-09-27T03:25:32;19.90;91.50
24426;DHT22;12611;44.446;26.000;2022-09-27T03:28:00;19.80;91.60
24426;DHT22;12611;44.446;26.000;2022-09-27T03:30:29;19.80;92.00
24426;DHT22;12611;44.446;26.000;2022-09-27T03:32:57;19.80;92.10
24426;DHT22;12611;44.446;26.000;2022-09-27T03:35:26;19.80;92.30
24426;DHT22;12611;44.446;26.000;2022-09-27T03:37:54;19.70;92.40
24426;DHT22;12611;44.446;26.000;2022-09-27T03:40:24;19.70;92.30
24426;DHT22;12611;44.446;26.000;2022-09-27T03:42:53;19.60;92.50
24426;DHT22;12611;44.446;26.000;2022-09-27T03:45:21;19.70;92.40
24426;DHT22;12611;44.446;26.000;2022-09-27T03:47:50;19.70;92.50
24426;DHT22;12611;44.446;26.000;2022-09-27T03:50:18;19.70;92.60
24426;DHT22;12611;44.446;26.000;2022-09-27T03:52:46;19.60;92.60
24426;DHT22;12611;44.446;26.000;2022-09-27T03:55:15;19.60;92.70
24426;DHT22;12611;44.446;26.000;2022-09-27T03:57:45;19.60;92.90
24426;DHT22;12611;44.446;26.000;2022-09-27T04:00:14;19.60;93.00
24426;DHT22;12611;44.446;26.000;2022-09-27T04:02:43;19.60;93.00
24426;DHT22;12611;44.446;26.000;2022-09-27T04:05:11;19.60;93.20
24426;DHT22;12611;44.446;26.000;2022-09-27T04:07:44;19.50;93.10
24426;DHT22;12611;44.446;26.000;2022-09-27T04:10:12;19.50;93.40
24426;DHT22;12611;44.446;26.000;2022-09-27T04:12:41;19.50;93.50
24426;DHT22;12611;44.446;26.000;2022-09-27T04:15:11;19.50;93.50
24426;DHT22;12611;44.446;26.000;2022-09-27T04:17:40;19.50;93.50
24426;DHT22;12611;44.446;26.000;2022-09-27T04:20:10;19.50;93.60
24426;DHT22;12611;44.446;26.000;2022-09-27T04:22:39;19.50;93.60
24426;DHT22;12611;44.446;26.000;2022-09-27T04:25:10;19.40;93.70
24426;DHT22;12611;44.446;26.000;2022-09-27T04:27:42;19.40;93.80
24426;DHT22;12611;44.446;26.000;2022-09-27T04:30:13;19.40;93.90
24426;DHT22;12611;44.446;26.000;2022-09-27T04:32:42;19.50;94.30
24426;DHT22;12611;44.446;26.000;2022-09-27T04:35:12;19.40;94.10
24426;DHT22;12611;44.446;26.000;2022-09-27T04:38:12;19.40;94.30
24426;DHT22;12611;44.446;26.000;2022-09-27T04:40:40;19.40;94.20
24426;DHT22;12611;44.446;26.000;2022-09-27T04:43:09;19.40;94.40
24426;DHT22;12611;44.446;26.000;2022-09-27T04:45:39;19.40;94.40
24426;DHT22;12611;44.446;26.000;2022-09-27T04:48:07;19.30;94.60
24426;DHT22;12611;44.446;26.000;2022-09-27T04:50:36;19.30;94.80
24426;DHT22;12611;44.446;26.000;2022-09-27T04:53:05;19.30;94.80
24426;DHT22;12611;44.446;26.000;2022-09-27T04:55:34;19.30;95.00
24426;DHT22;12611;44.446;26.000;2022-09-27T04:58:02;19.30;95.30
24426;DHT22;12611;44.446;26.000;2022-09-27T05:00:31;19.30;95.20
24426;DHT22;12611;44.446;26.000;2022-09-27T05:03:00;19.30;95.40
24426;DHT22;12611;44.446;26.000;2022-09-27T05:05:29;19.30;95.40
24426;DHT22;12611;44.446;26.000;2022-09-27T05:07:57;19.20;95.60
24426;DHT22;12611;44.446;26.000;2022-09-27T05:10:26;19.30;95.70
24426;DHT22;12611;44.446;26.000;2022-09-27T05:12:54;19.20;95.60
24426;DHT22;12611;44.446;26.000;2022-09-27T05:15:22;19.30;95.70
24426;DHT22;12611;44.446;26.000;2022-09-27T05:17:51;19.20;95.90
24426;DHT22;12611;44.446;26.000;2022-09-27T05:20:21;19.20;95.80
24426;DHT22;12611;44.446;26.000;2022-09-27T05:22:51;19.20;96.00
24426;DHT22;12611;44.446;26.000;2022-09-27T05:25:23;19.20;95.90
24426;DHT22;12611;44.446;26.000;2022-09-27T05:27:51;19.30;96.00
24426;DHT22;12611;44.446;26.000;2022-09-27T05:30:20;19.20;96.20
24426;DHT22;12611;44.446;26.000;2022-09-27T05:32:48;19.20;96.40
24426;DHT22;12611;44.446;26.000;2022-09-27T05:35:17;19.20;96.80
24426;DHT22;12611;44.446;26.000;2022-09-27T05:37:52;19.20;96.80
24426;DHT22;12611;44.446;26.000;2022-09-27T05:40:20;19.20;96.80
24426;DHT22;12611;44.446;26.000;2022-09-27T05:43:08;19.20;97.10
24426;DHT22;12611;44.446;26.000;2022-09-27T05:45:37;19.20;97.00
24426;DHT22;12611;44.446;26.000;2022-09-27T05:48:06;19.20;97.30
24426;DHT22;12611;44.446;26.000;2022-09-27T05:50:34;19.20;97.30
24426;DHT22;12611;44.446;26.000;2022-09-27T05:53:05;19.20;97.30
24426;DHT22;12611;44.446;26.000;2022-09-27T05:55:33;19.20;97.30
24426;DHT22;12611;44.446;26.000;2022-09-27T05:58:03;19.30;97.30
24426;DHT22;12611;44.446;26.000;2022-09-27T06:00:33;19.30;97.40
24426;DHT22;12611;44.446;26.000;2022-09-27T06:03:05;19.30;97.40
24426;DHT22;12611;44.446;26.000;2022-09-27T06:05:35;19.30;97.50
24426;DHT22;12611;44.446;26.000;2022-09-27T06:08:07;19.30;97.50
24426;DHT22;12611;44.446;26.000;2022-09-27T06:10:37;19.30;97.70
24426;DHT22;12611;44.446;26.000;2022-09-27T06:13:08;19.30;97.70
24426;DHT22;12611;44.446;26.000;2022-09-27T06:15:38;19.40;97.60
24426;DHT22;12611;44.446;26.000;2022-09-27T06:18:09;19.40;97.60
24426;DHT22;12611;44.446;26.000;2022-09-27T06:20:38;19.50;97.50
24426;DHT22;12611;44.446;26.000;2022-09-27T06:23:10;19.50;97.40
24426;DHT22;12611;44.446;26.000;2022-09-27T06:25:39;19.50;97.50
24426;DHT22;12611;44.446;26.000;2022-09-27T06:28:08;19.50;97.40
24426;DHT22;12611;44.446;26.000;2022-09-27T06:30:38;19.60;97.30
24426;DHT22;12611;44.446;26.000;2022-09-27T06:33:10;19.60;97.20
24426;DHT22;12611;44.446;26.000;2022-09-27T06:35:39;19.60;97.10
24426;DHT22;12611;44.446;26.000;2022-09-27T06:38:11;19.60;97.40
24426;DHT22;12611;44.446;26.000;2022-09-27T06:40:42;19.70;97.20
24426;DHT22;12611;44.446;26.000;2022-09-27T06:43:12;19.60;97.30
24426;DHT22;12611;44.446;26.000;2022-09-27T06:45:43;19.70;97.20
24426;DHT22;12611;44.446;26.000;2022-09-27T06:48:16;19.70;97.20
24426;DHT22;12611;44.446;26.000;2022-09-27T06:50:45;19.80;97.00
24426;DHT22;12611;44.446;26.000;2022-09-27T06:53:19;19.80;96.80
24426;DHT22;12611;44.446;26.000;2022-09-27T06:55:51;19.90;96.80
24426;DHT22;12611;44.446;26.000;2022-09-27T06:58:19;19.90;96.70
24426;DHT22;12611;44.446;26.000;2022-09-27T07:01:05;19.90;96.50
24426;DHT22;12611;44.446;26.000;2022-09-27T07:03:34;20.00;96.40
24426;DHT22;12611;44.446;26.000;2022-09-27T07:06:15;20.00;96.30
24426;DHT22;12611;44.446;26.000;2022-09-27T07:08:49;20.10;96.30
24426;DHT22;12611;44.446;26.000;2022-09-27T07:11:20;20.00;96.30
24426;DHT22;12611;44.446;26.000;2022-09-27T07:13:49;20.10;96.20
24426;DHT22;12611;44.446;26.000;2022-09-27T07:16:18;20.20;96.10
24426;DHT22;12611;44.446;26.000;2022-09-27T07:18:47;20.20;96.10
24426;DHT22;12611;44.446;26.000;2022-09-27T07:21:18;20.20;96.00
24426;DHT22;12611;44.446;26.000;2022-09-27T07:23:48;20.20;96.00
24426;DHT22;12611;44.446;26.000;2022-09-27T07:26:17;20.20;96.10
24426;DHT22;12611;44.446;26.000;2022-09-27T07:28:45;20.20;96.10
24426;DHT22;12611;44.446;26.000;2022-09-27T07:31:13;20.20;96.10
24426;DHT22;12611;44.446;26.000;2022-09-27T07:33:43;20.20;96.10
24426;DHT22;12611;44.446;26.000;2022-09-27T07:36:12;20.20;96.00
24426;DHT22;12611;44.446;26.000;2022-09-27T07:38:41;20.20;95.80
24426;DHT22;12611;44.446;26.000;2022-09-27T07:41:12;20.30;95.80
24426;DHT22;12611;44.446;26.000;2022-09-27T07:43:41;20.30;95.80
24426;DHT22;12611;44.446;26.000;2022-09-27T07:46:10;20.30;95.60
24426;DHT22;12611;44.446;26.000;2022-09-27T07:48:39;20.30;95.60
24426;DHT22;12611;44.446;26.000;2022-09-27T07:51:08;20.40;95.60
24426;DHT22;12611;44.446;26.000;2022-09-27T07:53:37;20.40;95.60
24426;DHT22;12611;44.446;26.000;2022-09-27T07:56:06;20.40;95.50
24426;DHT22;12611;44.446;26.000;2022-09-27T07:58:36;20.40;95.60
24426;DHT22;12611;44.446;26.000;2022-09-27T08:01:06;20.40;95.60
24426;DHT22;12611;44.446;26.000;2022-09-27T08:03:34;20.40;95.60
24426;DHT22;12611;44.446;26.000;2022-09-27T08:06:04;20.50;95.60
24426;DHT22;12611;44.446;26.000;2022-09-27T08:08:32;20.50;95.50
24426;DHT22;12611;44.446;26.000;2022-09-27T08:11:00;20.50;95.50
24426;DHT22;12611;44.446;26.000;2022-09-27T08:13:29;20.50;95.70
24426;DHT22;12611;44.446;26.000;2022-09-27T08:16:02;20.60;95.70
24426;DHT22;12611;44.446;26.000;2022-09-27T08:18:31;20.60;95.80
24426;DHT22;12611;44.446;26.000;2022-09-27T08:20:59;20.60;95.70
24426;DHT22;12611;44.446;26.000;2022-09-27T08:23:28;20.60;95.60
24426;DHT22;12611;44.446;26.000;2022-09-27T08:25:59;20.60;95.50
24426;DHT22;12611;44.446;26.000;2022-09-27T08:28:28;20.60;95.50
24426;DHT22;12611;44.446;26.000;2022-09-27T08:30:57;20.60;95.40
24426;DHT22;12611;44.446;26.000;2022-09-27T08:33:28;20.70;95.40
24426;DHT22;12611;44.446;26.000;2022-09-27T08:36:01;20.80;95.50
24426;DHT22;12611;44.446;26.000;2022-09-27T08:38:29;20.80;95.50
24426;DHT22;12611;44.446;26.000;2022-09-27T08:41:02;20.90;95.50
24426;DHT22;12611;44.446;26.000;2022-09-27T08:43:38;20.90;95.30
24426;DHT22;12611;44.446;26.000;2022-09-27T08:46:22;20.90;95.20
24426;DHT22;12611;44.446;26.000;2022-09-27T08:48:58;20.90;95.10
24426;DHT22;12611;44.446;26.000;2022-09-27T08:51:32;20.90;95.00
24426;DHT22;12611;44.446;26.000;2022-09-27T08:54:04;21.00;94.90
24426;DHT22;12611;44.446;26.000;2022-09-27T08:56:37;21.00;94.90
24426;DHT22;12611;44.446;26.000;2022-09-27T08:59:11;21.00;94.80
24426;DHT22;12611;44.446;26.000;2022-09-27T09:01:40;21.10;94.70
24426;DHT22;12611;44.446;26.000;2022-09-27T09:04:11;21.10;94.60
24426;DHT22;12611;44.446;26.000;2022-09-27T09:06:49;21.10;94.60
24426;DHT22;12611;44.446;26.000;2022-09-27T09:09:34;21.10;94.40
24426;DHT22;12611;44.446;26.000;2022-09-27T09:12:15;21.20;94.40
24426;DHT22;12611;44.446;26.000;2022-09-27T09:15:15;21.20;94.10
24426;DHT22;12611;44.446;26.000;2022-09-27T09:20:54;21.30;93.90
24426;DHT22;12611;44.446;26.000;2022-09-27T09:23:53;21.30;93.80
24426;DHT22;12611;44.446;26.000;2022-09-27T09:26:32;21.30;93.70
24426;DHT22;12611;44.446;26.000;2022-09-27T09:29:19;21.40;93.70
24426;DHT22;12611;44.446;26.000;2022-09-27T09:31:58;21.40;93.60
24426;DHT22;12611;44.446;26.000;2022-09-27T09:34:34;21.40;93.50
24426;DHT22;12611;44.446;26.000;2022-09-27T09:37:10;21.40;93.40
24426;DHT22;12611;44.446;26.000;2022-09-27T09:39:43;21.50;93.30
24426;DHT22;12611;44.446;26.000;2022-09-27T09:42:14;21.50;93.20
24426;DHT22;12611;44.446;26.000;2022-09-27T09:44:50;21.50;93.20
24426;DHT22;12611;44.446;26.000;2022-09-27T09:47:28;21.60;93.10
24426;DHT22;12611;44.446;26.000;2022-09-27T09:50:01;21.60;92.90
24426;DHT22;12611;44.446;26.000;2022-09-27T09:52:39;21.70;92.80
24426;DHT22;12611;44.446;26.000;2022-09-27T09:55:16;21.70;92.70
24426;DHT22;12611;44.446;26.000;2022-09-27T09:57:55;21.80;92.60
24426;DHT22;12611;44.446;26.000;2022-09-27T10:00:25;21.80;92.50
24426;DHT22;12611;44.446;26.000;2022-09-27T10:02:57;21.90;92.30
24426;DHT22;12611;44.446;26.000;2022-09-27T10:05:27;21.90;92.00
24426;DHT22;12611;44.446;26.000;2022-09-27T10:07:59;22.00;91.80
24426;DHT22;12611;44.446;26.000;2022-09-27T10:10:28;22.00;91.50
24426;DHT22;12611;44.446;26.000;2022-09-27T10:12:57;22.00;91.50
24426;DHT22;12611;44.446;26.000;2022-09-27T10:15:28;22.10;91.30
24426;DHT22;12611;44.446;26.000;2022-09-27T10:17:59;22.10;90.90
24426;DHT22;12611;44.446;26.000;2022-09-27T10:20:30;22.10;90.80
24426;DHT22;12611;44.446;26.000;2022-09-27T10:23:05;22.10;90.60
24426;DHT22;12611;44.446;26.000;2022-09-27T10:25:47;22.20;90.20
24426;DHT22;12611;44.446;26.000;2022-09-27T10:28:46;22.10;89.10
24426;DHT22;12611;44.446;26.000;2022-09-27T10:31:19;22.10;89.00
24426;DHT22;12611;44.446;26.000;2022-09-27T10:34:03;22.20;89.20
24426;DHT22;12611;44.446;26.000;2022-09-27T10:36:34;22.20;88.90
24426;DHT22;12611;44.446;26.000;2022-09-27T10:39:19;22.20;88.80
24426;DHT22;12611;44.446;26.000;2022-09-27T10:41:48;22.20;88.70
24426;DHT22;12611;44.446;26.000;2022-09-27T10:44:24;22.30;88.80
24426;DHT22;12611;44.446;26.000;2022-09-27T10:46:54;22.30;88.80
24426;DHT22;12611;44.446;26.000;2022-09-27T10:49:26;22.30;88.70
24426;DHT22;12611;44.446;26.000;2022-09-27T10:51:57;22.30;88.40
24426;DHT22;12611;44.446;26.000;2022-09-27T10:54:29;22.30;88.40
24426;DHT22;12611;44.446;26.000;2022-09-27T10:57:01;22.40;88.70
24426;DHT22;12611;44.446;26.000;2022-09-27T10:59:33;22.40;88.60
24426;DHT22;12611;44.446;26.000;2022-09-27T11:02:02;22.40;88.50
24426;DHT22;12611;44.446;26.000;2022-09-27T11:04:33;22.50;88.50
24426;DHT22;12611;44.446;26.000;2022-09-27T11:07:15;22.50;88.20
24426;DHT22;12611;44.446;26.000;2022-09-27T11:09:50;22.60;87.70
24426;DHT22;12611;44.446;26.000;2022-09-27T11:12:21;22.70;87.50
24426;DHT22;12611;44.446;26.000;2022-09-27T11:14:57;22.80;87.20
24426;DHT22;12611;44.446;26.000;2022-09-27T11:17:31;22.90;86.90
24426;DHT22;12611;44.446;26.000;2022-09-27T11:20:11;22.90;86.50
24426;DHT22;12611;44.446;26.000;2022-09-27T11:25:40;23.10;85.30
24426;DHT22;12611;44.446;26.000;2022-09-27T11:28:15;23.10;84.60
24426;DHT22;12611;44.446;26.000;2022-09-27T11:30:54;23.10;84.30
24426;DHT22;12611;44.446;26.000;2022-09-27T11:33:49;23.20;84.60
24426;DHT22;12611;44.446;26.000;2022-09-27T11:36:32;23.20;84.60
24426;DHT22;12611;44.446;26.000;2022-09-27T11:39:05;23.20;84.50
24426;DHT22;12611;44.446;26.000;2022-09-27T11:41:46;23.20;84.50
24426;DHT22;12611;44.446;26.000;2022-09-27T11:44:41;23.20;84.20
24426;DHT22;12611;44.446;26.000;2022-09-27T11:47:16;23.20;84.00
24426;DHT22;12611;44.446;26.000;2022-09-27T11:52:59;23.40;84.20
24426;DHT22;12611;44.446;26.000;2022-09-27T11:55:41;23.60;84.00
24426;DHT22;12611;44.446;26.000;2022-09-27T11:58:19;23.60;83.00
24426;DHT22;12611;44.446;26.000;2022-09-27T12:01:00;23.60;82.20
24426;DHT22;12611;44.446;26.000;2022-09-27T12:03:53;23.60;82.10
24426;DHT22;12611;44.446;26.000;2022-09-27T12:06:37;23.60;81.30
24426;DHT22;12611;44.446;26.000;2022-09-27T12:09:09;23.60;81.60
24426;DHT22;12611;44.446;26.000;2022-09-27T12:11:41;23.60;81.80
24426;DHT22;12611;44.446;26.000;2022-09-27T12:14:19;23.60;81.80
24426;DHT22;12611;44.446;26.000;2022-09-27T12:16:53;23.60;81.90
24426;DHT22;12611;44.446;26.000;2022-09-27T12:19:25;23.60;81.80
24426;DHT22;12611;44.446;26.000;2022-09-27T12:21:58;23.60;81.90
24426;DHT22;12611;44.446;26.000;2022-09-27T12:24:28;23.60;81.80
24426;DHT22;12611;44.446;26.000;2022-09-27T12:27:00;23.60;81.60
24426;DHT22;12611;44.446;26.000;2022-09-27T12:29:33;23.60;81.50
24426;DHT22;12611;44.446;26.000;2022-09-27T12:32:11;23.60;81.60
24426;DHT22;12611;44.446;26.000;2022-09-27T12:34:45;23.60;81.80
24426;DHT22;12611;44.446;26.000;2022-09-27T12:37:17;23.60;81.90
24426;DHT22;12611;44.446;26.000;2022-09-27T12:39:49;23.50;81.90
24426;DHT22;12611;44.446;26.000;2022-09-27T12:42:23;23.50;82.00
24426;DHT22;12611;44.446;26.000;2022-09-27T12:44:53;23.50;82.10
24426;DHT22;12611;44.446;26.000;2022-09-27T12:47:32;23.40;82.20
24426;DHT22;12611;44.446;26.000;2022-09-27T12:50:09;23.40;82.40
24426;DHT22;12611;44.446;26.000;2022-09-27T12:52:41;23.40;82.40
24426;DHT22;12611;44.446;26.000;2022-09-27T12:55:32;23.30;82.60
24426;DHT22;12611;44.446;26.000;2022-09-27T12:58:23;23.30;82.80
24426;DHT22;12611;44.446;26.000;2022-09-27T13:01:00;23.20;82.80
24426;DHT22;12611;44.446;26.000;2022-09-27T13:03:53;23.20;82.90
24426;DHT22;12611;44.446;26.000;2022-09-27T13:06:37;23.20;83.00
24426;DHT22;12611;44.446;26.000;2022-09-27T13:09:29;23.20;83.10
24426;DHT22;12611;44.446;26.000;2022-09-27T13:12:06;23.20;83.20
24426;DHT22;12611;44.446;26.000;2022-09-27T13:14:45;23.20;83.20
24426;DHT22;12611;44.446;26.000;2022-09-27T13:17:33;23.20;83.50
24426;DHT22;12611;44.446;26.000;2022-09-27T13:23:49;23.10;84.40
24426;DHT22;12611;44.446;26.000;2022-09-27T13:26:39;23.10;85.70
24426;DHT22;12611;44.446;26.000;2022-09-27T13:29:24;23.20;86.80
24426;DHT22;12611;44.446;26.000;2022-09-27T13:32:21;23.20;86.80
24426;DHT22;12611;44.446;26.000;2022-09-27T13:34:52;23.20;86.80
24426;DHT22;12611;44.446;26.000;2022-09-27T13:37:47;23.30;87.10
24426;DHT22;12611;44.446;26.000;2022-09-27T13:40:28;23.30;86.70
24426;DHT22;12611;44.446;26.000;2022-09-27T13:43:33;23.30;86.40
24426;DHT22;12611;44.446;26.000;2022-09-27T13:46:15;23.30;86.10
24426;DHT22;12611;44.446;26.000;2022-09-27T13:48:49;23.30;86.00
24426;DHT22;12611;44.446;26.000;2022-09-27T13:51:28;23.30;86.70
24426;DHT22;12611;44.446;26.000;2022-09-27T13:54:03;23.30;85.90
24426;DHT22;12611;44.446;26.000;2022-09-27T13:56:53;23.30;85.70
24426;DHT22;12611;44.446;26.000;2022-09-27T13:59:30;23.40;85.60
24426;DHT22;12611;44.446;26.000;2022-09-27T14:02:10;23.40;85.60
24426;DHT22;12611;44.446;26.000;2022-09-27T14:04:42;23.40;85.40
24426;DHT22;12611;44.446;26.000;2022-09-27T14:07:16;23.50;85.30
24426;DHT22;12611;44.446;26.000;2022-09-27T14:09:47;23.50;85.10
24426;DHT22;12611;44.446;26.000;2022-09-27T14:12:18;23.50;85.20
24426;DHT22;12611;44.446;26.000;2022-09-27T14:14:47;23.50;85.10
24426;DHT22;12611;44.446;26.000;2022-09-27T14:17:16;23.50;85.00
24426;DHT22;12611;44.446;26.000;2022-09-27T14:19:45;23.60;84.90
24426;DHT22;12611;44.446;26.000;2022-09-27T14:22:18;23.60;84.70
24426;DHT22;12611;44.446;26.000;2022-09-27T14:24:48;23.60;84.50
24426;DHT22;12611;44.446;26.000;2022-09-27T14:27:18;23.60;84.40
24426;DHT22;12611;44.446;26.000;2022-09-27T14:29:49;23.60;84.50
24426;DHT22;12611;44.446;26.000;2022-09-27T14:32:21;23.60;84.50
24426;DHT22;12611;44.446;26.000;2022-09-27T14:35:04;23.60;84.60
24426;DHT22;12611;44.446;26.000;2022-09-27T14:37:34;23.60;84.80
24426;DHT22;12611;44.446;26.000;2022-09-27T14:40:04;23.60;84.80
24426;DHT22;12611;44.446;26.000;2022-09-27T14:42:35;23.60;84.60
24426;DHT22;12611;44.446;26.000;2022-09-27T14:45:12;23.50;84.60
24426;DHT22;12611;44.446;26.000;2022-09-27T14:47:45;23.50;84.80
24426;DHT22;12611;44.446;26.000;2022-09-27T14:50:18;23.50;85.00
24426;DHT22;12611;44.446;26.000;2022-09-27T14:52:48;23.40;85.10
24426;DHT22;12611;44.446;26.000;2022-09-27T14:55:23;23.40;85.20
24426;DHT22;12611;44.446;26.000;2022-09-27T14:57:52;23.30;85.50
24426;DHT22;12611;44.446;26.000;2022-09-27T15:00:23;23.30;85.80
24426;DHT22;12611;44.446;26.000;2022-09-27T15:02:53;23.20;85.90
24426;DHT22;12611;44.446;26.000;2022-09-27T15:05:26;23.20;86.00
24426;DHT22;12611;44.446;26.000;2022-09-27T15:07:57;23.20;86.10
24426;DHT22;12611;44.446;26.000;2022-09-27T15:10:28;23.20;86.30
24426;DHT22;12611;44.446;26.000;2022-09-27T15:12:59;23.10;86.30
24426;DHT22;12611;44.446;26.000;2022-09-27T15:15:50;23.10;86.60
24426;DHT22;12611;44.446;26.000;2022-09-27T15:18:38;23.10;86.70
24426;DHT22;12611;44.446;26.000;2022-09-27T15:21:09;23.10;86.70
24426;DHT22;12611;44.446;26.000;2022-09-27T15:23:41;23.10;86.90
24426;DHT22;12611;44.446;26.000;2022-09-27T15:26:13;23.00;86.90
24426;DHT22;12611;44.446;26.000;2022-09-27T15:28:43;23.10;87.00
24426;DHT22;12611;44.446;26.000;2022-09-27T15:31:12;23.00;87.00
24426;DHT22;12611;44.446;26.000;2022-09-27T15:33:42;23.00;86.90
24426;DHT22;12611;44.446;26.000;2022-09-27T15:36:50;23.00;86.70
24426;DHT22;12611;44.446;26.000;2022-09-27T15:39:27;23.00;86.60
24426;DHT22;12611;44.446;26.000;2022-09-27T15:42:01;23.00;86.50
24426;DHT22;12611;44.446;26.000;2022-09-27T15:44:45;23.00;86.40
24426;DHT22;12611;44.446;26.000;2022-09-27T15:47:41;23.00;86.40
24426;DHT22;12611;44.446;26.000;2022-09-27T15:50:31;23.00;86.30
24426;DHT22;12611;44.446;26.000;2022-09-27T15:53:00;23.00;86.30
24426;DHT22;12611;44.446;26.000;2022-09-27T15:55:35;23.00;86.10
24426;DHT22;12611;44.446;26.000;2022-09-27T15:58:10;23.00;86.90
24426;DHT22;12611;44.446;26.000;2022-09-27T16:00:50;22.90;86.00
24426;DHT22;12611;44.446;26.000;2022-09-27T16:03:19;22.90;86.00
24426;DHT22;12611;44.446;26.000;2022-09-27T16:05:47;22.90;85.90
24426;DHT22;12611;44.446;26.000;2022-09-27T16:08:16;22.90;85.80
24426;DHT22;12611;44.446;26.000;2022-09-27T16:10:49;22.90;85.80